Time,TemperatureF,DewpointF,PressureIn,WindDirection,WindDirectionDegrees,WindSpeedMPH,WindSpeedGustMPH,Humidity,HourlyPrecipIn,Conditions,Clouds,dailyrainin,SoftwareType,DateUTC
2013-10-19 00:05:00,49.0,47.0,-100.00,NNW,342,0.0,0.0,93,0.00,,,0.00,,2013-10-19 04:05:00,
2013-10-19 00:24:00,48.0,47.0,-100.00,WSW,254,0.0,0.0,94,0.00,,,0.00,,2013-10-19 04:24:00,
2013-10-19 00:54:00,48.0,47.0,-100.00,SSW,195,1.0,2.0,97,0.00,,,0.00,,2013-10-19 04:54:00,
2013-10-19 01:13:00,47.0,46.0,-100.00,SSE,165,0.0,1.0,96,0.00,,,0.00,,2013-10-19 05:13:00,
2013-10-19 01:23:00,47.0,46.0,-100.00,SSE,165,0.0,1.0,96,0.00,,,0.00,,2013-10-19 05:23:00,
2013-10-19 01:32:00,47.0,46.0,-100.00,NNW,332,0.0,0.0,98,0.00,,,0.00,,2013-10-19 05:32:00,
2013-10-19 01:52:00,46.0,45.0,-100.00,NNW,329,1.0,1.0,98,0.00,,,0.00,,2013-10-19 05:52:00,
2013-10-19 02:12:00,47.0,46.0,-100.00,NNW,332,0.0,0.0,98,0.00,,,0.00,,2013-10-19 06:12:00,
2013-10-19 02:22:00,47.0,46.0,-100.00,NNW,332,0.0,0.0,98,0.00,,,0.00,,2013-10-19 06:22:00,
2013-10-19 02:52:00,47.0,46.0,-100.00,NW,318,1.0,1.0,99,0.00,,,0.00,,2013-10-19 06:52:00,
2013-10-19 03:11:00,46.0,46.0,-100.00,NNW,339,1.0,1.0,98,0.00,,,0.00,,2013-10-19 07:11:00,
2013-10-19 03:22:00,46.0,46.0,-100.00,NNW,339,1.0,1.0,98,0.00,,,0.00,,2013-10-19 07:22:00,
2013-10-19 03:52:00,47.0,47.0,-100.00,NW,326,1.0,1.0,98,0.00,,,0.00,,2013-10-19 07:52:00,
2013-10-19 04:11:00,47.0,47.0,-100.00,NW,318,2.0,2.0,98,0.00,,,0.00,,2013-10-19 08:11:00,
2013-10-19 04:22:00,47.0,47.0,-100.00,NW,318,2.0,2.0,98,0.00,,,0.00,,2013-10-19 08:22:00,
2013-10-19 04:52:00,47.0,47.0,-100.00,North,11,1.0,2.0,98,0.00,,,0.00,,2013-10-19 08:52:00,
2013-10-19 05:12:00,47.0,47.0,-100.00,NW,322,2.0,2.0,98,0.00,,,0.00,,2013-10-19 09:12:00,
2013-10-19 05:22:00,47.0,47.0,-100.00,NW,322,2.0,2.0,98,0.00,,,0.00,,2013-10-19 09:22:00,
2013-10-19 05:54:00,47.0,47.0,-100.00,NE,48,3.0,4.0,98,0.00,,,0.00,,2013-10-19 09:54:00,
2013-10-19 06:13:00,48.0,47.0,-100.00,NNW,346,2.0,3.0,98,0.00,,,0.00,,2013-10-19 10:13:00,
2013-10-19 06:23:00,48.0,47.0,-100.00,NNW,346,2.0,3.0,98,0.00,,,0.00,,2013-10-19 10:23:00,
2013-10-19 06:53:00,48.0,47.0,-100.00,ENE,75,2.0,3.0,98,0.00,,,0.00,,2013-10-19 10:53:00,
2013-10-19 07:12:00,48.0,47.0,-100.00,NW,320,1.0,2.0,98,0.00,,,0.00,,2013-10-19 11:12:00,
2013-10-19 07:22:00,48.0,47.0,-100.00,NW,320,1.0,2.0,98,0.00,,,0.00,,2013-10-19 11:22:00,
2013-10-19 07:52:00,48.0,47.0,-100.00,NW,326,1.0,1.0,99,0.00,,,0.00,,2013-10-19 11:52:00,
2013-10-19 08:12:00,48.0,48.0,-100.00,ESE,106,0.0,1.0,98,0.00,,,0.00,,2013-10-19 12:12:00,
2013-10-19 08:22:00,48.0,48.0,-100.00,ESE,106,0.0,1.0,98,0.00,,,0.00,,2013-10-19 12:22:00,
2013-10-19 08:52:00,49.0,48.0,-100.00,North,1,2.0,3.0,96,0.00,,,0.00,,2013-10-19 12:52:00,
2013-10-19 09:22:00,49.0,48.0,-100.00,NNW,333,2.0,4.0,96,0.00,,,0.00,,2013-10-19 13:22:00,
2013-10-19 09:52:00,50.0,48.0,-100.00,NNE,25,1.0,2.0,93,0.00,,,0.00,,2013-10-19 13:52:00,
2013-10-19 10:11:00,51.0,49.0,-100.00,ENE,58,1.0,2.0,91,0.00,,,0.00,,2013-10-19 14:11:00,
2013-10-19 10:22:00,51.0,49.0,-100.00,ENE,58,1.0,2.0,91,0.00,,,0.00,,2013-10-19 14:22:00,
2013-10-19 10:52:00,53.0,50.0,-100.00,NW,316,3.0,5.0,89,0.00,,,0.00,,2013-10-19 14:52:00,
2013-10-19 11:11:00,54.0,51.0,-100.00,East,100,1.0,2.0,88,0.00,,,0.00,,2013-10-19 15:11:00,
2013-10-19 11:22:00,54.0,51.0,-100.00,East,100,1.0,2.0,88,0.00,,,0.00,,2013-10-19 15:22:00,
2013-10-19 11:44:00,56.0,51.0,-100.00,SSE,167,4.0,6.0,82,0.00,,,0.00,,2013-10-19 15:44:00,
2013-10-19 11:55:00,58.0,51.0,-100.00,SSW,198,3.0,6.0,77,0.00,,,0.00,,2013-10-19 15:55:00,
2013-10-19 12:14:00,57.0,51.0,-100.00,South,179,4.0,5.0,78,0.00,,,0.00,,2013-10-19 16:14:00,
2013-10-19 12:24:00,57.0,51.0,-100.00,South,179,4.0,5.0,78,0.00,,,0.00,,2013-10-19 16:24:00,
2013-10-19 12:53:00,61.0,52.0,-100.00,SW,215,4.0,7.0,74,0.00,,,0.00,,2013-10-19 16:53:00,
2013-10-19 13:13:00,60.0,52.0,-100.00,SSW,196,6.0,8.0,74,0.00,,,0.00,,2013-10-19 17:13:00,
2013-10-19 13:22:00,60.0,52.0,-100.00,SSW,196,6.0,8.0,74,0.00,,,0.00,,2013-10-19 17:22:00,
2013-10-19 13:52:00,60.0,53.0,-100.00,SSW,196,7.0,11.0,77,0.00,,,0.00,,2013-10-19 17:52:00,
2013-10-19 14:12:00,60.0,53.0,-100.00,South,188,5.0,6.0,77,0.00,,,0.00,,2013-10-19 18:12:00,
2013-10-19 14:22:00,60.0,53.0,-100.00,South,188,5.0,6.0,77,0.00,,,0.00,,2013-10-19 18:22:00,
2013-10-19 14:52:00,60.0,54.0,-100.00,South,185,6.0,8.0,80,0.00,,,0.00,,2013-10-19 18:52:00,
2013-10-19 15:12:00,60.0,54.0,-100.00,South,181,9.0,11.0,81,0.00,,,0.00,,2013-10-19 19:12:00,
2013-10-19 15:22:00,60.0,54.0,-100.00,South,181,9.0,11.0,81,0.00,,,0.00,,2013-10-19 19:22:00,
2013-10-19 15:52:00,60.0,54.0,-100.00,South,182,8.0,9.0,83,0.00,,,0.00,,2013-10-19 19:52:00,
2013-10-19 16:12:00,60.0,55.0,-100.00,South,175,5.0,6.0,84,0.00,,,0.00,,2013-10-19 20:12:00,
2013-10-19 16:22:00,60.0,55.0,-100.00,South,175,5.0,6.0,84,0.00,,,0.00,,2013-10-19 20:22:00,
2013-10-19 16:52:00,60.0,56.0,-100.00,South,185,9.0,11.0,85,0.00,,,0.00,,2013-10-19 20:52:00,
2013-10-19 17:11:00,60.0,55.0,-100.00,South,181,9.0,10.0,86,0.00,,,0.00,,2013-10-19 21:11:00,
2013-10-19 17:22:00,60.0,55.0,-100.00,South,181,9.0,10.0,86,0.00,,,0.00,,2013-10-19 21:22:00,
2013-10-19 17:54:00,60.0,56.0,-100.00,South,189,6.0,10.0,85,0.00,,,0.00,,2013-10-19 21:54:00,
2013-10-19 18:14:00,61.0,56.0,-100.00,South,181,10.0,12.0,85,0.00,,,0.00,,2013-10-19 22:14:00,
2013-10-19 18:24:00,61.0,56.0,-100.00,South,181,10.0,12.0,85,0.00,,,0.00,,2013-10-19 22:24:00,
2013-10-19 18:53:00,60.0,56.0,-100.00,SSW,195,4.0,6.0,88,0.00,,,0.00,,2013-10-19 22:53:00,
2013-10-19 19:12:00,58.0,56.0,-100.00,SW,229,2.0,2.0,91,0.00,,,0.00,,2013-10-19 23:12:00,
2013-10-19 19:22:00,58.0,56.0,-100.00,SW,229,2.0,2.0,91,0.00,,,0.00,,2013-10-19 23:22:00,
2013-10-19 19:52:00,57.0,55.0,-100.00,SSW,192,2.0,3.0,95,0.00,,,0.00,,2013-10-19 23:52:00,
2013-10-19 20:11:00,56.0,55.0,-100.00,NW,313,1.0,1.0,96,0.00,,,0.00,,2013-10-20 00:11:00,
2013-10-19 20:23:00,56.0,55.0,-100.00,NW,313,1.0,1.0,96,0.00,,,0.00,,2013-10-20 00:23:00,
2013-10-19 20:52:00,60.0,48.0,-100.00,NW,312,6.0,9.0,66,0.00,,,0.00,,2013-10-20 00:52:00,
2013-10-19 21:11:00,60.0,48.0,-100.00,NW,305,6.0,10.0,64,0.00,,,0.00,,2013-10-20 01:11:00,
2013-10-19 21:22:00,60.0,48.0,-100.00,NW,305,6.0,10.0,64,0.00,,,0.00,,2013-10-20 01:22:00,
2013-10-19 21:42:00,59.0,48.0,-100.00,NW,322,11.0,14.0,65,0.00,,,0.00,,2013-10-20 01:42:00,
2013-10-19 22:12:00,58.0,47.0,-100.00,NW,311,4.0,6.0,67,0.00,,,0.00,,2013-10-20 02:12:00,
2013-10-19 22:22:00,58.0,47.0,-100.00,NW,311,4.0,6.0,67,0.00,,,0.00,,2013-10-20 02:22:00,
2013-10-19 22:52:00,56.0,46.0,-100.00,WNW,301,3.0,5.0,68,0.00,,,0.00,,2013-10-20 02:52:00,
2013-10-19 23:12:00,56.0,46.0,-100.00,NW,319,2.0,4.0,69,0.00,,,0.00,,2013-10-20 03:12:00,
2013-10-19 23:22:00,56.0,46.0,-100.00,NW,319,2.0,4.0,69,0.00,,,0.00,,2013-10-20 03:22:00,
2013-10-19 23:54:00,56.0,45.0,-100.00,NW,312,5.0,7.0,67,0.00,,,0.00,,2013-10-20 03:54:00,